Terminal Aerodrome Forecast
Issued by NWS Rapid City, SD

Home | Current Version | Previous Version | Text Only | Print | Product List | Glossary On
Versions: 1 2 3 4 5 6 7 8 9 10 11 12 13 14 15 16
000
FTUS43 KUNR 302300
TAFRAP
TAF
KRAP 302320Z 3100/3124 17015KT P6SM TSRA SCT090CB OVC250
     FM310200 34017G27KT P6SM VCTS BKN090CB OVC150
     FM310400 33015G25KT P6SM BKN150 OVC250
     FM310900 32015KT P6SM BKN250
     FM311900 36011KT P6SM -TSRA OVC050CB=

USA.gov is the U.S. government's official web portal to all federal, state and local government web resources and services.